createdAt,value
2018-06-20T00:00:29.067Z,13.17
2018-06-20T00:02:58.271Z,12.94
2018-06-20T00:05:27.586Z,12.88
2018-06-20T00:07:56.825Z,12.80
2018-06-20T00:10:26.026Z,12.73
2018-06-20T00:12:55.277Z,12.87
2018-06-20T00:15:24.491Z,12.79
2018-06-20T00:17:53.682Z,12.68
2018-06-20T00:20:22.875Z,12.60
2018-06-20T00:22:52.053Z,12.56
2018-06-20T00:25:21.326Z,12.53
2018-06-20T00:27:50.505Z,12.52
2018-06-20T00:30:19.722Z,12.46
2018-06-20T00:32:48.914Z,12.44
2018-06-20T00:35:18.132Z,12.35
2018-06-20T00:37:47.315Z,12.29
2018-06-20T00:40:16.527Z,12.29
2018-06-20T00:42:45.805Z,12.32
2018-06-20T00:45:15.015Z,12.54
2018-06-20T00:47:44.215Z,12.36
2018-06-20T00:50:13.514Z,12.31
2018-06-20T00:52:42.695Z,12.53
2018-06-20T00:55:11.905Z,12.45
2018-06-20T00:57:41.126Z,12.30
2018-06-20T01:00:10.331Z,12.20
2018-06-20T01:02:39.527Z,12.13
2018-06-20T01:05:08.748Z,12.21
2018-06-20T01:07:37.959Z,12.32
2018-06-20T01:10:07.813Z,12.13
2018-06-20T01:12:36.995Z,12.08
2018-06-20T01:15:06.280Z,12.06
2018-06-20T01:17:35.499Z,11.99
2018-06-20T01:20:04.687Z,12.01
2018-06-20T01:22:33.876Z,11.96
2018-06-20T01:25:03.081Z,12.05
2018-06-20T01:27:32.293Z,12.39
2018-06-20T01:30:01.483Z,12.38
2018-06-20T01:32:30.732Z,12.06
2018-06-20T01:34:59.927Z,11.90
2018-06-20T01:37:29.123Z,11.85
2018-06-20T01:39:58.328Z,11.85
2018-06-20T01:42:27.571Z,11.82
2018-06-20T01:44:56.781Z,11.77
2018-06-20T01:47:26.127Z,11.68
2018-06-20T01:49:55.340Z,11.75
2018-06-20T01:52:24.303Z,11.69
2018-06-20T01:54:53.491Z,11.65
2018-06-20T01:57:22.686Z,11.63
2018-06-20T01:59:51.915Z,11.84
2018-06-20T02:02:21.122Z,11.63
2018-06-20T02:04:50.310Z,11.66
2018-06-20T02:07:19.526Z,11.72
2018-06-20T02:09:48.739Z,11.63
2018-06-20T02:12:17.954Z,11.52
2018-06-20T02:14:47.194Z,11.43
2018-06-20T02:17:16.383Z,11.53
2018-06-20T02:19:45.611Z,11.65
2018-06-20T02:22:14.835Z,11.44
2018-06-20T02:24:44.028Z,11.38
2018-06-20T02:27:13.243Z,11.34
2018-06-20T02:29:43.086Z,11.29
2018-06-20T02:32:12.318Z,11.25
2018-06-20T02:34:44.365Z,11.28
2018-06-20T02:37:13.609Z,11.28
2018-06-20T02:39:42.896Z,11.18
2018-06-20T02:42:12.097Z,11.14
2018-06-20T02:44:41.402Z,11.18
2018-06-20T02:47:10.598Z,11.23
2018-06-20T02:49:39.791Z,11.20
2018-06-20T02:52:09.071Z,11.21
2018-06-20T02:54:38.269Z,11.20
2018-06-20T02:57:07.473Z,11.23
2018-06-20T02:59:36.690Z,11.13
2018-06-20T03:02:05.891Z,11.12
2018-06-20T03:04:35.076Z,11.24
2018-06-20T03:07:04.306Z,11.12
2018-06-20T03:09:33.502Z,11.37
2018-06-20T03:12:02.710Z,11.31
2018-06-20T03:14:31.939Z,11.13
2018-06-20T03:17:01.157Z,11.07
2018-06-20T03:19:30.913Z,11.05
2018-06-20T03:22:00.186Z,11.01
2018-06-20T03:24:29.403Z,11.00
2018-06-20T03:26:58.603Z,11.02
2018-06-20T03:29:27.788Z,11.16
2018-06-20T03:31:57.027Z,11.09
2018-06-20T03:34:26.302Z,11.07
2018-06-20T03:36:55.687Z,11.07
2018-06-20T03:39:24.894Z,11.09
2018-06-20T03:41:54.162Z,11.29
2018-06-20T03:44:23.474Z,11.21
2018-06-20T03:46:52.677Z,11.24
2018-06-20T03:49:21.900Z,11.19
2018-06-20T03:51:51.134Z,11.20
2018-06-20T03:54:20.338Z,11.19
2018-06-20T03:56:49.749Z,11.22
2018-06-20T03:59:18.945Z,11.32
2018-06-20T04:01:48.190Z,11.38
2018-06-20T04:04:17.391Z,11.43
2018-06-20T04:06:46.967Z,11.48
2018-06-20T04:09:16.151Z,11.50
2018-06-20T04:11:45.345Z,11.52
2018-06-20T04:14:14.555Z,11.60
2018-06-20T04:16:43.778Z,11.67
2018-06-20T04:19:12.978Z,11.82
2018-06-20T04:21:42.217Z,11.93
2018-06-20T04:24:11.406Z,12.04
2018-06-20T04:26:40.596Z,12.18
2018-06-20T04:29:09.849Z,12.32
2018-06-20T04:31:39.034Z,12.40
2018-06-20T04:34:08.441Z,12.47
2018-06-20T04:36:37.643Z,12.59
2018-06-20T04:39:09.559Z,12.71
2018-06-20T04:41:38.755Z,12.88
2018-06-20T04:44:07.986Z,13.04
2018-06-20T04:46:37.200Z,14.20
2018-06-20T04:49:06.461Z,18.13
2018-06-20T04:51:35.658Z,19.58
2018-06-20T04:54:04.854Z,18.91
2018-06-20T04:56:34.112Z,20.72
2018-06-20T04:59:03.586Z,23.97
2018-06-20T05:01:32.849Z,24.81
2018-06-20T05:04:02.043Z,25.26
2018-06-20T05:06:31.269Z,25.36
2018-06-20T05:09:02.115Z,25.52
2018-06-20T05:11:32.027Z,24.94
2018-06-20T05:14:01.271Z,26.54
2018-06-20T05:16:30.447Z,28.24
2018-06-20T05:18:59.643Z,27.75
2018-06-20T05:21:28.855Z,25.41
2018-06-20T05:23:58.072Z,25.30
2018-06-20T05:26:27.255Z,27.01
2018-06-20T05:28:56.434Z,26.66
2018-06-20T05:31:25.631Z,27.93
2018-06-20T05:33:54.822Z,26.71
2018-06-20T05:36:24.005Z,26.85
2018-06-20T05:38:53.262Z,27.05
2018-06-20T05:41:22.495Z,26.78
2018-06-20T05:43:51.994Z,27.70
2018-06-20T05:46:21.203Z,29.94
2018-06-20T05:48:50.531Z,29.33
2018-06-20T05:51:19.853Z,29.28
2018-06-20T05:53:49.099Z,27.56
2018-06-20T05:56:18.395Z,29.77
2018-06-20T05:58:47.612Z,31.89
2018-06-20T06:01:17.003Z,30.93
2018-06-20T06:03:46.558Z,31.91
2018-06-20T06:06:16.743Z,33.73
2018-06-20T06:08:47.193Z,31.68
2018-06-20T06:11:16.389Z,32.07
2018-06-20T06:13:45.587Z,32.78
2018-06-20T06:16:14.774Z,32.63
2018-06-20T06:18:43.999Z,33.57
2018-06-20T06:21:13.175Z,32.02
2018-06-20T06:23:42.393Z,31.30
2018-06-20T06:26:11.597Z,31.65
2018-06-20T06:28:40.808Z,31.65
2018-06-20T06:31:10.025Z,32.43
2018-06-20T06:33:39.279Z,31.78
2018-06-20T06:36:08.522Z,31.62
2018-06-20T06:38:37.697Z,33.14
2018-06-20T06:41:06.878Z,34.62
2018-06-20T06:43:36.080Z,33.07
2018-06-20T06:46:05.155Z,33.83
2018-06-20T06:48:34.360Z,33.95
2018-06-20T06:51:03.571Z,34.32
2018-06-20T06:53:32.774Z,33.44
2018-06-20T06:56:02.054Z,35.65
2018-06-20T06:58:32.219Z,37.18
2018-06-20T07:01:01.412Z,35.34
2018-06-20T07:03:30.729Z,34.97
2018-06-20T07:05:59.930Z,34.81
2018-06-20T07:08:29.112Z,36.47
2018-06-20T07:10:58.311Z,36.58
2018-06-20T07:13:27.719Z,36.69
2018-06-20T07:15:56.908Z,36.54
2018-06-20T07:18:26.123Z,37.50
2018-06-20T07:20:55.386Z,36.95
2018-06-20T07:23:24.767Z,36.19
2018-06-20T07:25:53.975Z,36.55
2018-06-20T07:28:23.201Z,36.08
2018-06-20T07:30:52.409Z,36.31
2018-06-20T07:33:21.633Z,34.15
2018-06-20T07:35:50.973Z,33.62
2018-06-20T07:38:20.119Z,34.49
2018-06-20T07:40:49.403Z,34.64
2018-06-20T07:43:18.616Z,35.12
2018-06-20T07:45:47.808Z,33.23
2018-06-20T07:48:17.035Z,33.46
2018-06-20T07:50:46.252Z,35.97
2018-06-20T07:53:15.451Z,33.85
2018-06-20T07:55:44.635Z,33.66
2018-06-20T07:59:17.882Z,33.83
2018-06-20T08:02:09.866Z,34.35
2018-06-20T08:04:44.578Z,33.64
2018-06-20T08:07:18.927Z,37.00
2018-06-20T08:09:53.283Z,32.57
2018-06-20T08:12:27.716Z,32.13
2018-06-20T08:15:02.040Z,32.52
2018-06-20T08:17:36.366Z,35.64
2018-06-20T08:20:09.667Z,37.40
2018-06-20T08:22:38.914Z,34.42
2018-06-20T08:25:08.127Z,31.18
2018-06-20T08:27:37.339Z,34.31
2018-06-20T08:30:07.971Z,31.76
2018-06-20T08:32:37.185Z,34.53
2018-06-20T08:35:06.371Z,31.81
2018-06-20T08:37:35.703Z,32.99
2018-06-20T08:40:05.246Z,35.19
2018-06-20T08:42:34.525Z,36.92
2018-06-20T08:45:03.692Z,36.74
2018-06-20T08:47:32.886Z,33.47
2018-06-20T08:50:02.114Z,37.31
2018-06-20T08:52:31.391Z,33.40
2018-06-20T08:55:00.583Z,36.30
2018-06-20T08:57:29.852Z,33.06
2018-06-20T08:59:59.059Z,32.24
2018-06-20T09:02:28.064Z,32.98
2018-06-20T09:05:02.654Z,34.94
2018-06-20T09:07:37.187Z,37.72
2018-06-20T09:10:11.507Z,36.29
2018-06-20T09:12:45.927Z,33.16
2018-06-20T09:15:20.287Z,31.45
2018-06-20T09:17:54.593Z,31.50
2018-06-20T09:20:24.808Z,31.21
2018-06-20T09:22:53.970Z,31.09
2018-06-20T09:25:23.210Z,32.00
2018-06-20T09:27:52.420Z,33.45
2018-06-20T09:30:21.627Z,33.36
2018-06-20T09:32:50.833Z,36.64
2018-06-20T09:35:20.027Z,38.05
2018-06-20T09:37:49.222Z,37.69
2018-06-20T09:40:18.466Z,33.65
2018-06-20T09:42:47.673Z,32.75
2018-06-20T09:45:16.902Z,33.94
2018-06-20T09:47:46.084Z,34.38
2018-06-20T09:50:20.547Z,37.23
2018-06-20T09:52:49.774Z,37.05
2018-06-20T09:55:18.966Z,37.65
2018-06-20T09:57:49.134Z,37.48
2018-06-20T10:00:23.605Z,34.59
2018-06-20T10:02:58.082Z,34.05
2018-06-20T10:05:32.487Z,33.41
2018-06-20T10:08:06.924Z,32.27
2018-06-20T10:10:41.306Z,33.87
2018-06-20T10:13:12.512Z,36.98
2018-06-20T10:15:41.688Z,34.25
2018-06-20T10:18:10.987Z,34.51
2018-06-20T10:20:40.190Z,32.79
2018-06-20T10:23:09.392Z,34.70
2018-06-20T10:25:38.587Z,34.04
2018-06-20T10:28:07.774Z,33.06
2018-06-20T10:30:37.069Z,32.92
2018-06-20T10:33:06.307Z,33.80
2018-06-20T10:35:35.599Z,31.74
2018-06-20T10:38:04.811Z,31.32
2018-06-20T10:40:34.092Z,29.82
2018-06-20T10:43:03.506Z,29.66
2018-06-20T10:45:38.829Z,31.47
2018-06-20T10:48:14.774Z,33.11
2018-06-20T10:50:44.787Z,33.54
2018-06-20T10:53:14.010Z,38.22
2018-06-20T10:55:43.220Z,35.54
2018-06-20T10:58:17.675Z,33.76
2018-06-20T11:00:52.012Z,32.00
2018-06-20T11:03:26.364Z,33.14
2018-06-20T11:06:00.706Z,31.56
2018-06-20T11:08:35.005Z,32.25
2018-06-20T11:11:09.338Z,31.46
2018-06-20T11:13:38.541Z,32.55
2018-06-20T11:16:07.786Z,33.51
2018-06-20T11:18:39.973Z,33.87
2018-06-20T11:21:09.178Z,33.31
2018-06-20T11:23:38.377Z,32.09
2018-06-20T11:26:07.619Z,35.42
2018-06-20T11:28:36.902Z,30.79
2018-06-20T11:31:06.152Z,31.12
2018-06-20T11:33:35.427Z,31.42
2018-06-20T11:36:04.676Z,34.32
2018-06-20T11:38:33.863Z,32.86
2018-06-20T11:41:03.051Z,32.40
2018-06-20T11:43:32.255Z,32.14
2018-06-20T11:46:06.815Z,33.69
2018-06-20T11:48:36.055Z,33.14
2018-06-20T11:51:06.359Z,31.54
2018-06-20T11:53:35.559Z,32.85
2018-06-20T11:56:04.754Z,31.43
2018-06-20T11:58:39.079Z,31.31
2018-06-20T12:01:13.530Z,31.43
2018-06-20T12:03:47.888Z,31.45
2018-06-20T12:06:22.266Z,32.03
2018-06-20T12:08:56.675Z,31.61
2018-06-20T12:11:31.107Z,32.50
2018-06-20T12:14:05.450Z,33.06
2018-06-20T12:16:36.356Z,34.17
2018-06-20T12:19:10.672Z,31.92
2018-06-20T12:21:45.021Z,30.34
2018-06-20T12:24:19.360Z,29.78
2018-06-20T12:26:53.729Z,30.09
2018-06-20T12:29:28.028Z,29.14
2018-06-20T12:32:02.355Z,28.66
2018-06-20T12:34:36.725Z,28.76
2018-06-20T12:37:11.170Z,29.72
2018-06-20T12:39:39.494Z,29.85
2018-06-20T12:42:13.823Z,29.41
2018-06-20T12:45:18.634Z,29.76
2018-06-20T12:47:50.361Z,29.37
2018-06-20T12:50:22.334Z,29.26
2018-06-20T12:52:51.539Z,29.82
2018-06-20T12:55:20.739Z,29.97
2018-06-20T12:57:50.074Z,29.97
2018-06-20T13:00:19.255Z,29.41
2018-06-20T13:02:48.475Z,28.60
2018-06-20T13:05:17.883Z,27.98
2018-06-20T13:07:47.070Z,28.47
2018-06-20T13:10:16.260Z,29.22
2018-06-20T13:12:45.495Z,28.42
2018-06-20T13:15:14.676Z,29.17
2018-06-20T13:17:43.864Z,28.95
2018-06-20T13:20:13.126Z,29.49
2018-06-20T13:22:42.265Z,29.30
2018-06-20T13:25:11.458Z,28.83
2018-06-20T13:27:46.532Z,29.46
2018-06-20T13:30:16.323Z,29.33
2018-06-20T13:34:54.791Z,28.81
2018-06-20T13:37:29.133Z,29.13
2018-06-20T13:40:03.555Z,28.78
2018-06-20T13:42:37.920Z,28.83
2018-06-20T13:46:16.331Z,29.47
2018-06-20T13:48:45.712Z,29.44
2018-06-20T13:51:14.903Z,28.76
2018-06-20T13:53:44.152Z,28.65
2018-06-20T13:56:13.359Z,28.85
2018-06-20T13:58:42.542Z,28.33
2018-06-20T14:01:11.974Z,28.03
2018-06-20T14:03:41.203Z,28.28
2018-06-20T14:06:10.454Z,28.55
2018-06-20T14:08:39.675Z,29.02
2018-06-20T14:11:08.854Z,29.32
2018-06-20T14:13:38.243Z,29.26
2018-06-20T14:16:07.471Z,29.14
2018-06-20T14:18:36.700Z,29.09
2018-06-20T14:21:11.242Z,29.29
2018-06-20T14:23:40.426Z,29.07
2018-06-20T14:26:09.710Z,29.41
2018-06-20T14:28:38.888Z,28.47
2018-06-20T14:31:13.398Z,28.04
2018-06-20T14:33:47.742Z,27.74
2018-06-20T14:36:22.225Z,28.12
2018-06-20T14:38:56.640Z,28.06
2018-06-20T14:41:26.108Z,28.17
2018-06-20T14:44:00.565Z,28.26
2018-06-20T14:46:31.478Z,28.06
2018-06-20T14:49:01.078Z,27.83
2018-06-20T14:51:30.362Z,28.20
2018-06-20T14:53:59.571Z,28.03
2018-06-20T14:56:28.745Z,28.03
2018-06-20T14:58:57.962Z,28.39
2018-06-20T15:01:27.170Z,28.25
2018-06-20T15:03:56.405Z,28.21
2018-06-20T15:06:25.852Z,27.67
2018-06-20T15:08:55.068Z,27.64
2018-06-20T15:11:24.385Z,27.67
2018-06-20T15:13:53.599Z,27.72
2018-06-20T15:16:28.173Z,27.79
2018-06-20T15:18:57.442Z,27.64
2018-06-20T15:21:26.646Z,27.89
2018-06-20T15:23:55.956Z,27.97
2018-06-20T15:26:30.391Z,27.92
2018-06-20T15:29:04.710Z,27.88
2018-06-20T15:31:39.013Z,27.55
2018-06-20T15:34:13.397Z,27.99
2018-06-20T15:36:47.699Z,27.87
2018-06-20T15:39:16.886Z,27.96
2018-06-20T15:41:46.120Z,27.83
2018-06-20T15:44:15.324Z,27.64
2018-06-20T15:46:44.537Z,27.99
2018-06-20T15:49:13.769Z,28.01
2018-06-20T15:51:43.030Z,27.69
2018-06-20T15:54:12.237Z,27.14
2018-06-20T15:56:41.475Z,27.50
2018-06-20T15:59:10.653Z,27.61
2018-06-20T16:01:39.871Z,27.66
2018-06-20T16:04:09.262Z,27.71
2018-06-20T16:06:38.438Z,27.77
2018-06-20T16:09:13.627Z,27.85
2018-06-20T16:11:42.818Z,27.66
2018-06-20T16:14:12.222Z,27.04
2018-06-20T16:16:41.398Z,26.77
2018-06-20T16:19:15.861Z,26.66
2018-06-20T16:21:50.374Z,26.86
2018-06-20T16:24:24.775Z,26.65
2018-06-20T16:26:59.061Z,26.53
2018-06-20T16:29:33.377Z,26.44
2018-06-20T16:32:02.611Z,26.38
2018-06-20T16:34:31.795Z,26.41
2018-06-20T16:37:00.978Z,26.58
2018-06-20T16:39:30.173Z,26.42
2018-06-20T16:41:59.223Z,26.30
2018-06-20T16:44:28.591Z,26.24
2018-06-20T16:46:57.839Z,26.35
2018-06-20T16:49:27.049Z,26.37
2018-06-20T16:51:56.253Z,26.29
2018-06-20T16:54:25.648Z,26.20
2018-06-20T16:56:54.851Z,26.34
2018-06-20T16:59:24.082Z,26.41
2018-06-20T17:01:58.542Z,26.12
2018-06-20T17:04:27.764Z,25.92
2018-06-20T17:06:57.015Z,25.83
2018-06-20T17:09:26.366Z,25.79
2018-06-20T17:12:00.726Z,25.96
2018-06-20T17:14:35.080Z,25.88
2018-06-20T17:17:09.426Z,25.82
2018-06-20T17:19:44.356Z,25.81
2018-06-20T17:51:43.671Z,25.81
2018-06-20T17:54:12.854Z,24.98
2018-06-20T17:56:42.086Z,24.93
2018-06-20T17:59:11.314Z,24.95
2018-06-20T18:01:40.530Z,24.76
2018-06-20T18:04:09.722Z,24.74
2018-06-20T18:06:44.302Z,24.61
2018-06-20T18:09:18.662Z,24.51
2018-06-20T18:11:53.210Z,24.34
2018-06-20T18:14:27.555Z,24.30
2018-06-20T18:16:57.486Z,24.25
2018-06-20T18:19:26.901Z,24.18
2018-06-20T18:21:56.138Z,24.09
2018-06-20T18:24:25.819Z,24.05
2018-06-20T18:26:55.434Z,23.97
2018-06-20T18:29:39.524Z,23.86
2018-06-20T18:32:08.879Z,23.70
2018-06-20T18:34:38.266Z,23.61
2018-06-20T18:37:07.455Z,23.53
2018-06-20T18:39:41.853Z,23.49
2018-06-20T18:42:10.990Z,23.29
2018-06-20T18:44:40.184Z,23.15
2018-06-20T18:47:09.404Z,23.06
2018-06-20T18:49:38.597Z,22.93
2018-06-20T18:52:07.790Z,22.80
2018-06-20T18:54:36.980Z,22.67
2018-06-20T18:57:09.533Z,22.63
2018-06-20T18:59:43.919Z,22.53
2018-06-20T19:02:18.178Z,22.27
2018-06-20T19:04:52.635Z,22.11
2018-06-20T19:07:27.074Z,22.04
2018-06-20T19:09:56.292Z,21.86
2018-06-20T19:12:25.498Z,21.73
2018-06-20T19:14:54.732Z,21.62
2018-06-20T19:17:23.886Z,21.55
2018-06-20T19:19:53.150Z,21.39
2018-06-20T19:22:22.294Z,21.18
2018-06-20T19:24:51.482Z,21.02
2018-06-20T19:27:20.731Z,20.84
2018-06-20T19:29:49.938Z,20.74
2018-06-20T19:32:19.130Z,20.65
2018-06-20T19:34:48.395Z,20.71
2018-06-20T19:37:17.583Z,20.39
2018-06-20T19:39:50.775Z,20.24
2018-06-20T19:42:21.830Z,20.10
2018-06-20T19:44:51.725Z,19.89
2018-06-20T19:47:20.833Z,20.01
2018-06-20T19:49:50.022Z,19.82
2018-06-20T19:52:19.230Z,19.66
2018-06-20T19:54:48.435Z,19.51
2018-06-20T19:57:17.634Z,19.41
2018-06-20T19:59:46.879Z,19.34
2018-06-20T20:02:16.115Z,19.18
2018-06-20T20:04:45.299Z,19.11
2018-06-20T20:07:14.517Z,19.19
2018-06-20T20:09:43.853Z,19.01
2018-06-20T20:12:13.045Z,19.01
2018-06-20T20:14:42.279Z,18.86
2018-06-20T20:17:11.467Z,19.13
2018-06-20T20:19:41.670Z,18.71
2018-06-20T20:22:10.871Z,18.52
2018-06-20T20:24:40.062Z,18.42
2018-06-20T20:27:09.294Z,18.30
2018-06-20T20:29:38.510Z,18.16
2018-06-20T20:32:07.714Z,18.09
2018-06-20T20:34:36.975Z,18.03
2018-06-20T20:37:06.242Z,18.00
2018-06-20T20:39:35.473Z,17.87
2018-06-20T20:42:04.703Z,17.80
2018-06-20T20:44:33.923Z,17.71
2018-06-20T20:47:03.343Z,17.63
2018-06-20T20:49:32.637Z,17.57
2018-06-20T20:52:01.823Z,17.47
2018-06-20T20:54:31.038Z,17.45
2018-06-20T20:57:00.298Z,17.66
2018-06-20T20:59:29.671Z,17.60
2018-06-20T21:01:58.888Z,17.86
2018-06-20T21:04:28.098Z,17.43
2018-06-20T21:06:57.299Z,17.32
2018-06-20T21:09:26.518Z,17.19
2018-06-20T21:11:55.708Z,17.27
2018-06-20T21:14:24.964Z,17.67
2018-06-20T21:16:54.172Z,17.60
2018-06-20T21:19:23.370Z,17.12
2018-06-20T21:21:52.636Z,17.12
2018-06-20T21:24:21.847Z,16.88
2018-06-20T21:26:51.047Z,16.88
2018-06-20T21:29:20.549Z,16.67
2018-06-20T21:31:49.771Z,16.82
2018-06-20T21:34:18.975Z,16.91
2018-06-20T21:36:48.216Z,16.57
2018-06-20T21:39:17.416Z,16.50
2018-06-20T21:41:46.627Z,16.36
2018-06-20T21:44:15.822Z,16.34
2018-06-20T21:46:45.048Z,16.34
2018-06-20T21:49:14.218Z,16.33
2018-06-20T21:51:43.521Z,16.47
2018-06-20T21:54:12.759Z,16.39
2018-06-20T21:56:41.955Z,16.28
2018-06-20T21:59:11.182Z,16.32
2018-06-20T22:01:40.396Z,16.14
2018-06-20T22:04:10.034Z,16.05
2018-06-20T22:06:39.242Z,15.98
2018-06-20T22:09:09.857Z,15.92
2018-06-20T22:11:39.158Z,16.25
2018-06-20T22:14:09.398Z,16.13
2018-06-20T22:16:39.066Z,15.87
2018-06-20T22:19:08.271Z,15.74
2018-06-20T22:21:37.470Z,15.74
2018-06-20T22:24:07.005Z,15.64
2018-06-20T22:26:35.961Z,15.57
2018-06-20T22:29:05.885Z,15.71
2018-06-20T22:31:35.110Z,15.51
2018-06-20T22:34:04.378Z,15.45
2018-06-20T22:36:33.708Z,15.33
2018-06-20T22:39:02.982Z,15.39
2018-06-20T22:41:32.211Z,15.36
2018-06-20T22:44:01.410Z,15.27
2018-06-20T22:46:30.598Z,15.28
2018-06-20T22:48:59.803Z,15.24
2018-06-20T22:51:29.454Z,15.20
2018-06-20T22:53:58.669Z,15.11
2018-06-20T22:56:27.895Z,15.08
2018-06-20T22:58:57.127Z,15.00
2018-06-20T23:01:26.330Z,14.91
2018-06-20T23:03:58.725Z,14.84
2018-06-20T23:06:27.939Z,14.89
2018-06-20T23:08:57.166Z,15.19
2018-06-20T23:11:26.380Z,14.86
2018-06-20T23:13:55.667Z,14.91
2018-06-20T23:16:24.875Z,14.76
2018-06-20T23:18:54.611Z,15.05
2018-06-20T23:21:23.890Z,14.81
2018-06-20T23:23:53.123Z,15.11
2018-06-20T23:26:22.339Z,15.06
2018-06-20T23:28:51.522Z,14.82
2018-06-20T23:31:20.824Z,14.60
2018-06-20T23:33:50.040Z,14.49
2018-06-20T23:36:19.267Z,14.66
2018-06-20T23:38:48.246Z,14.85
2018-06-20T23:41:17.438Z,14.59
2018-06-20T23:43:46.650Z,14.35
2018-06-20T23:46:15.927Z,14.26
2018-06-20T23:48:45.127Z,14.20
2018-06-20T23:51:14.427Z,14.20
2018-06-20T23:53:43.628Z,14.26
2018-06-20T23:56:12.845Z,14.18
2018-06-20T23:58:42.038Z,14.12
